Forks, WA

8:32 PM PST on February 26, 2015 (GMT -0800)
Fairchild International | Change Station
CLOSE
Current Station
Airport
Location: Port Angeles,
Elevation: 289 ft
Nearby Weather Stations

Elev 289 ft 48.12 °N, 123.50 °W | Updated 28 minutes ago

Rain
Rain
48 °F
Feels Like 48 °F
N
5
Wind Variable Wind from East

Today
High -- | Low -- °F
--% Chance of Precip.
Yesterday
High -- | Low -- °F
Precip. -- in
7:04 AM 5:57 PM
Waxing Gibbous, 65% visible
Pressure 29.88 in
Visibility 10.0 miles
Clouds Mostly Cloudy 400 ft
Overcast 700 ft
Dew Point 46 °F
Humidity 93%
Rainfall 0.07 in
Snow Depth Not available.
UV 0 out of 12
Pollen 1.70 out of 12
Air Quality Not available.
Flu Activity Not available.
SPECI KCLM 270404Z AUTO 08004KT 10SM BKN004 OVC007 09/08 A2988 RMK AO2 RAE0359 P0000 T00890078

More Conditions Fewer Conditions

Pressure 29.88 in
Visibility 10.0 miles
Clouds Mostly Cloudy 400 ft
Overcast 700 ft
Dew Point 46 °F
Humidity 93%
Rainfall 0.07 in
Snow Depth Not available.
UV 0 out of 12
Pollen 1.70 out of 12
Air Quality Not available.
Flu Activity Not available.
SPECI KCLM 270404Z AUTO 08004KT 10SM BKN004 OVC007 09/08 A2988 RMK AO2 RAE0359 P0000 T00890078

More Conditions Fewer Conditions

10-Day Weather Forecast

Almanac

Astronomy

Feb. 26, 2015 Rise Set
Actual Time
Civil Twilight
Nautical Twilight
Astronomical Twilight
Moon
Length of Visible Light
Length of Day
Tomorrow will be .
, % of the Moon is Illuminated

Today's Extremes

State Highs State Lows

Community

WunderPhotos

Upload Photos

1,800,623 photos uploaded!

WunderBlogs® & News

Nearby

Air Quality

  Air Quality AQ Index Pollutant
Not available.

Snow Depth

Station Depth Elevation

Earthquake Activity

City Distance Mag. Time & Date
Minimum magnitude displayed is 2.5.

Coastal Water Temperatures

Place Temperature

Nearby Weather Stations